KPAM

Tyndall AFB Airport

Panama City, Florida, USA
METAR KPAM 280056Z AUTO 04006G16KT 10SM BKN009 23/22 A2971 RMK AO2 RAE2358DZB2358E00RAB27E46DZB46E48 BKN V OVC SLP064 P0002 T02260221
Observed Flight Rules
May-28 @ 00:56 UTC (9 minutes ago) Instrument Flight Rules
Wind Visibility Clouds
40° at 6 knots
 Gusting to 16 knots
10 miles
  • Broken at 900' AGL
Temperatures Readings Precipitation
Current 23°C / 73°F
Dewpoint 22°C / 72°F
Humidity 94%
Altimeter 29.71" Hg
Pressure 1006.4 hPa
Elevation 5
Current Rain 0.02
METAR KPAM 280056Z AUTO 04006G16KT 10SM BKN009 23/22 A2971 RMK AO2 RAE2358DZB2358E00RAB27E46DZB46E48 BKN V OVC SLP064 P0002 T02260221
Observed Flight Rules
May-28 @ 00:56 UTC
(9 minutes ago)
IFR
Wind Visibility
40° at 6 knots
 Gusting to 16 knots
10 miles
Clouds
  • Broken at 900' AGL
Temperature Dewpoint
23°C / 73°F 22°C / 72°F
Humidity Altimeter Pressure
94% 29.71" Hg 1006.4 hPa
Current Rain
0.02